sensor_id;sensor_type;location;lat;lon;timestamp;P1;durP1;ratioP1;P2;durP2;ratioP2
58152;SDS011;43967;51.634;5.566;2023-04-25T00:00:23;6.25;;;1.77;;
58152;SDS011;43967;51.634;5.566;2023-04-25T00:05:44;7.10;;;1.70;;
58152;SDS011;43967;51.634;5.566;2023-04-25T00:11:06;6.57;;;2.00;;
58152;SDS011;43967;51.634;5.566;2023-04-25T00:16:27;6.70;;;1.80;;
58152;SDS011;43967;51.634;5.566;2023-04-25T00:21:49;6.25;;;1.80;;
58152;SDS011;43967;51.634;5.566;2023-04-25T00:27:10;7.22;;;2.25;;
58152;SDS011;43967;51.634;5.566;2023-04-25T00:32:31;5.60;;;1.80;;
58152;SDS011;43967;51.634;5.566;2023-04-25T00:37:53;6.72;;;2.03;;
58152;SDS011;43967;51.634;5.566;2023-04-25T00:43:15;7.00;;;1.80;;
58152;SDS011;43967;51.634;5.566;2023-04-25T00:48:36;7.03;;;2.20;;
58152;SDS011;43967;51.634;5.566;2023-04-25T00:53:57;6.20;;;1.70;;
58152;SDS011;43967;51.634;5.566;2023-04-25T00:59:19;6.40;;;1.95;;
58152;SDS011;43967;51.634;5.566;2023-04-25T01:04:42;6.80;;;2.03;;
58152;SDS011;43967;51.634;5.566;2023-04-25T01:10:04;8.57;;;2.23;;
58152;SDS011;43967;51.634;5.566;2023-04-25T01:15:26;5.93;;;1.88;;
58152;SDS011;43967;51.634;5.566;2023-04-25T01:20:47;6.88;;;2.00;;
58152;SDS011;43967;51.634;5.566;2023-04-25T01:26:13;7.80;;;1.90;;
58152;SDS011;43967;51.634;5.566;2023-04-25T01:31:34;7.65;;;1.90;;
58152;SDS011;43967;51.634;5.566;2023-04-25T01:36:56;7.43;;;2.00;;
58152;SDS011;43967;51.634;5.566;2023-04-25T01:42:20;6.33;;;2.27;;
58152;SDS011;43967;51.634;5.566;2023-04-25T01:47:42;6.97;;;2.00;;
58152;SDS011;43967;51.634;5.566;2023-04-25T01:53:04;6.55;;;1.90;;
58152;SDS011;43967;51.634;5.566;2023-04-25T01:58:25;7.00;;;1.97;;
58152;SDS011;43967;51.634;5.566;2023-04-25T02:03:48;6.73;;;2.00;;
58152;SDS011;43967;51.634;5.566;2023-04-25T02:09:09;5.90;;;1.95;;
58152;SDS011;43967;51.634;5.566;2023-04-25T02:14:31;6.03;;;1.58;;
58152;SDS011;43967;51.634;5.566;2023-04-25T02:19:52;7.37;;;2.03;;
58152;SDS011;43967;51.634;5.566;2023-04-25T02:25:13;6.70;;;1.90;;
58152;SDS011;43967;51.634;5.566;2023-04-25T02:30:34;7.25;;;1.80;;
58152;SDS011;43967;51.634;5.566;2023-04-25T02:35:56;7.00;;;2.00;;
58152;SDS011;43967;51.634;5.566;2023-04-25T02:41:20;7.40;;;2.00;;
58152;SDS011;43967;51.634;5.566;2023-04-25T02:46:41;6.32;;;2.05;;
58152;SDS011;43967;51.634;5.566;2023-04-25T02:52:02;5.37;;;1.60;;
58152;SDS011;43967;51.634;5.566;2023-04-25T02:57:24;6.93;;;2.00;;
58152;SDS011;43967;51.634;5.566;2023-04-25T03:02:46;5.93;;;1.70;;
58152;SDS011;43967;51.634;5.566;2023-04-25T03:08:07;6.47;;;2.00;;
58152;SDS011;43967;51.634;5.566;2023-04-25T03:13:30;6.70;;;1.97;;
58152;SDS011;43967;51.634;5.566;2023-04-25T03:18:52;7.78;;;2.08;;
58152;SDS011;43967;51.634;5.566;2023-04-25T03:24:14;7.00;;;2.00;;
58152;SDS011;43967;51.634;5.566;2023-04-25T03:29:35;6.57;;;2.00;;
58152;SDS011;43967;51.634;5.566;2023-04-25T03:34:56;7.05;;;1.98;;
58152;SDS011;43967;51.634;5.566;2023-04-25T03:40:17;7.28;;;1.95;;
58152;SDS011;43967;51.634;5.566;2023-04-25T03:45:39;6.27;;;2.20;;
58152;SDS011;43967;51.634;5.566;2023-04-25T03:51:00;6.50;;;1.90;;
58152;SDS011;43967;51.634;5.566;2023-04-25T03:56:21;6.57;;;2.10;;
58152;SDS011;43967;51.634;5.566;2023-04-25T04:01:42;7.68;;;1.92;;
58152;SDS011;43967;51.634;5.566;2023-04-25T04:07:04;7.43;;;1.70;;
58152;SDS011;43967;51.634;5.566;2023-04-25T04:12:27;6.03;;;1.65;;
58152;SDS011;43967;51.634;5.566;2023-04-25T04:17:48;6.80;;;1.80;;
58152;SDS011;43967;51.634;5.566;2023-04-25T04:23:09;6.83;;;1.70;;
58152;SDS011;43967;51.634;5.566;2023-04-25T04:28:31;7.10;;;1.63;;
58152;SDS011;43967;51.634;5.566;2023-04-25T04:33:52;6.65;;;1.50;;
58152;SDS011;43967;51.634;5.566;2023-04-25T04:39:13;7.70;;;2.40;;
58152;SDS011;43967;51.634;5.566;2023-04-25T04:44:35;6.90;;;1.87;;
58152;SDS011;43967;51.634;5.566;2023-04-25T04:49:56;7.40;;;1.80;;
58152;SDS011;43967;51.634;5.566;2023-04-25T04:55:19;8.27;;;2.25;;
58152;SDS011;43967;51.634;5.566;2023-04-25T05:00:40;7.00;;;2.00;;
58152;SDS011;43967;51.634;5.566;2023-04-25T05:06:02;5.78;;;1.70;;
58152;SDS011;43967;51.634;5.566;2023-04-25T05:11:23;8.13;;;1.80;;
58152;SDS011;43967;51.634;5.566;2023-04-25T05:16:45;8.10;;;1.87;;
58152;SDS011;43967;51.634;5.566;2023-04-25T05:22:06;5.60;;;1.40;;
58152;SDS011;43967;51.634;5.566;2023-04-25T05:27:28;6.45;;;1.80;;
58152;SDS011;43967;51.634;5.566;2023-04-25T05:32:49;6.27;;;1.77;;
58152;SDS011;43967;51.634;5.566;2023-04-25T05:38:10;6.67;;;1.97;;
58152;SDS011;43967;51.634;5.566;2023-04-25T05:43:32;7.18;;;2.00;;
58152;SDS011;43967;51.634;5.566;2023-04-25T05:48:53;8.05;;;1.80;;
58152;SDS011;43967;51.634;5.566;2023-04-25T05:54:14;6.70;;;1.70;;
58152;SDS011;43967;51.634;5.566;2023-04-25T05:59:39;6.63;;;1.92;;
58152;SDS011;43967;51.634;5.566;2023-04-25T06:05:00;7.07;;;2.05;;
58152;SDS011;43967;51.634;5.566;2023-04-25T06:10:23;7.27;;;1.83;;
58152;SDS011;43967;51.634;5.566;2023-04-25T06:15:44;6.35;;;1.90;;
58152;SDS011;43967;51.634;5.566;2023-04-25T06:21:06;6.88;;;2.00;;
58152;SDS011;43967;51.634;5.566;2023-04-25T06:26:27;6.27;;;2.10;;
58152;SDS011;43967;51.634;5.566;2023-04-25T06:31:48;6.93;;;2.10;;
58152;SDS011;43967;51.634;5.566;2023-04-25T06:37:09;6.40;;;2.05;;
58152;SDS011;43967;51.634;5.566;2023-04-25T06:42:31;7.07;;;2.20;;
58152;SDS011;43967;51.634;5.566;2023-04-25T06:47:52;6.93;;;1.90;;
58152;SDS011;43967;51.634;5.566;2023-04-25T06:53:13;6.22;;;1.75;;
58152;SDS011;43967;51.634;5.566;2023-04-25T06:58:34;6.80;;;2.05;;
58152;SDS011;43967;51.634;5.566;2023-04-25T07:03:56;7.37;;;2.03;;
58152;SDS011;43967;51.634;5.566;2023-04-25T07:09:17;6.00;;;1.52;;
58152;SDS011;43967;51.634;5.566;2023-04-25T07:14:40;6.93;;;1.75;;
58152;SDS011;43967;51.634;5.566;2023-04-25T07:20:01;6.47;;;1.63;;
58152;SDS011;43967;51.634;5.566;2023-04-25T07:25:22;6.13;;;1.77;;
58152;SDS011;43967;51.634;5.566;2023-04-25T07:30:44;7.20;;;2.33;;
58152;SDS011;43967;51.634;5.566;2023-04-25T07:36:05;6.30;;;1.67;;
58152;SDS011;43967;51.634;5.566;2023-04-25T07:41:28;6.17;;;1.33;;
58152;SDS011;43967;51.634;5.566;2023-04-25T07:46:49;6.57;;;1.77;;
58152;SDS011;43967;51.634;5.566;2023-04-25T07:52:11;6.85;;;1.50;;
58152;SDS011;43967;51.634;5.566;2023-04-25T07:57:33;6.17;;;1.80;;
58152;SDS011;43967;51.634;5.566;2023-04-25T08:02:55;6.60;;;1.67;;
58152;SDS011;43967;51.634;5.566;2023-04-25T08:08:16;5.80;;;1.83;;
58152;SDS011;43967;51.634;5.566;2023-04-25T08:13:38;6.40;;;1.77;;
58152;SDS011;43967;51.634;5.566;2023-04-25T08:18:59;5.67;;;1.50;;
58152;SDS011;43967;51.634;5.566;2023-04-25T08:24:23;6.75;;;1.60;;
58152;SDS011;43967;51.634;5.566;2023-04-25T08:29:45;6.80;;;2.08;;
58152;SDS011;43967;51.634;5.566;2023-04-25T08:35:06;7.37;;;1.70;;
58152;SDS011;43967;51.634;5.566;2023-04-25T08:40:28;6.45;;;1.83;;
58152;SDS011;43967;51.634;5.566;2023-04-25T08:45:49;6.50;;;1.70;;
58152;SDS011;43967;51.634;5.566;2023-04-25T08:51:23;6.47;;;1.83;;
58152;SDS011;43967;51.634;5.566;2023-04-25T08:56:46;5.95;;;1.85;;
58152;SDS011;43967;51.634;5.566;2023-04-25T09:02:10;6.05;;;1.77;;
58152;SDS011;43967;51.634;5.566;2023-04-25T09:07:32;6.27;;;1.97;;
58152;SDS011;43967;51.634;5.566;2023-04-25T09:13:03;6.10;;;1.87;;
58152;SDS011;43967;51.634;5.566;2023-04-25T09:18:29;5.65;;;1.67;;
58152;SDS011;43967;51.634;5.566;2023-04-25T09:23:51;6.72;;;1.95;;
58152;SDS011;43967;51.634;5.566;2023-04-25T09:29:12;6.03;;;1.83;;
58152;SDS011;43967;51.634;5.566;2023-04-25T09:34:38;5.75;;;1.90;;
58152;SDS011;43967;51.634;5.566;2023-04-25T09:40:03;5.63;;;1.52;;
58152;SDS011;43967;51.634;5.566;2023-04-25T09:45:29;5.73;;;1.60;;
58152;SDS011;43967;51.634;5.566;2023-04-25T09:56:23;6.22;;;1.70;;
58152;SDS011;43967;51.634;5.566;2023-04-25T10:01:46;6.20;;;1.90;;
58152;SDS011;43967;51.634;5.566;2023-04-25T10:07:09;5.30;;;1.60;;
58152;SDS011;43967;51.634;5.566;2023-04-25T10:12:32;6.25;;;1.63;;
58152;SDS011;43967;51.634;5.566;2023-04-25T10:17:54;6.78;;;1.83;;
58152;SDS011;43967;51.634;5.566;2023-04-25T10:23:17;5.27;;;1.57;;
58152;SDS011;43967;51.634;5.566;2023-04-25T10:28:54;5.70;;;1.33;;
58152;SDS011;43967;51.634;5.566;2023-04-25T10:34:18;6.38;;;1.40;;
58152;SDS011;43967;51.634;5.566;2023-04-25T10:39:40;4.83;;;1.27;;
58152;SDS011;43967;51.634;5.566;2023-04-25T10:45:04;4.57;;;1.25;;
58152;SDS011;43967;51.634;5.566;2023-04-25T10:50:31;5.80;;;1.52;;
58152;SDS011;43967;51.634;5.566;2023-04-25T10:55:58;6.57;;;1.57;;
58152;SDS011;43967;51.634;5.566;2023-04-25T11:01:20;6.47;;;1.93;;
58152;SDS011;43967;51.634;5.566;2023-04-25T11:12:44;5.60;;;1.40;;
58152;SDS011;43967;51.634;5.566;2023-04-25T11:18:06;5.80;;;1.50;;
58152;SDS011;43967;51.634;5.566;2023-04-25T11:23:27;5.70;;;1.55;;
58152;SDS011;43967;51.634;5.566;2023-04-25T11:28:50;5.55;;;1.50;;
58152;SDS011;43967;51.634;5.566;2023-04-25T11:34:11;5.90;;;1.50;;
58152;SDS011;43967;51.634;5.566;2023-04-25T11:39:37;5.30;;;1.30;;
58152;SDS011;43967;51.634;5.566;2023-04-25T11:44:58;5.80;;;1.38;;
58152;SDS011;43967;51.634;5.566;2023-04-25T11:50:20;6.47;;;1.60;;
58152;SDS011;43967;51.634;5.566;2023-04-25T11:55:41;5.93;;;1.57;;
58152;SDS011;43967;51.634;5.566;2023-04-25T12:01:02;5.38;;;1.65;;
58152;SDS011;43967;51.634;5.566;2023-04-25T12:06:30;6.05;;;1.35;;
58152;SDS011;43967;51.634;5.566;2023-04-25T12:11:55;4.87;;;1.20;;
58152;SDS011;43967;51.634;5.566;2023-04-25T12:17:18;6.00;;;1.20;;
58152;SDS011;43967;51.634;5.566;2023-04-25T12:22:43;5.55;;;1.67;;
58152;SDS011;43967;51.634;5.566;2023-04-25T12:28:11;5.78;;;1.58;;
58152;SDS011;43967;51.634;5.566;2023-04-25T12:33:42;5.40;;;1.60;;
58152;SDS011;43967;51.634;5.566;2023-04-25T12:39:04;4.63;;;1.40;;
58152;SDS011;43967;51.634;5.566;2023-04-25T12:44:25;5.00;;;1.23;;
58152;SDS011;43967;51.634;5.566;2023-04-25T12:49:47;5.27;;;1.20;;
58152;SDS011;43967;51.634;5.566;2023-04-25T12:55:09;6.25;;;1.35;;
58152;SDS011;43967;51.634;5.566;2023-04-25T13:00:30;5.53;;;1.20;;
58152;SDS011;43967;51.634;5.566;2023-04-25T13:05:55;5.57;;;1.80;;
58152;SDS011;43967;51.634;5.566;2023-04-25T13:11:16;5.13;;;1.40;;
58152;SDS011;43967;51.634;5.566;2023-04-25T13:16:37;4.43;;;1.17;;
58152;SDS011;43967;51.634;5.566;2023-04-25T13:21:58;6.65;;;1.58;;
58152;SDS011;43967;51.634;5.566;2023-04-25T13:27:20;6.37;;;1.40;;
58152;SDS011;43967;51.634;5.566;2023-04-25T13:32:42;5.22;;;1.55;;
58152;SDS011;43967;51.634;5.566;2023-04-25T13:38:03;4.07;;;1.20;;
58152;SDS011;43967;51.634;5.566;2023-04-25T13:43:27;4.83;;;1.53;;
58152;SDS011;43967;51.634;5.566;2023-04-25T13:48:49;5.03;;;1.38;;
58152;SDS011;43967;51.634;5.566;2023-04-25T13:54:12;6.25;;;1.60;;
58152;SDS011;43967;51.634;5.566;2023-04-25T13:59:33;5.60;;;1.30;;
58152;SDS011;43967;51.634;5.566;2023-04-25T14:04:56;5.67;;;1.33;;
58152;SDS011;43967;51.634;5.566;2023-04-25T14:10:18;6.70;;;1.58;;
58152;SDS011;43967;51.634;5.566;2023-04-25T14:15:40;4.97;;;1.30;;
58152;SDS011;43967;51.634;5.566;2023-04-25T14:21:03;4.97;;;1.37;;
58152;SDS011;43967;51.634;5.566;2023-04-25T14:26:24;5.20;;;1.50;;
58152;SDS011;43967;51.634;5.566;2023-04-25T14:31:45;6.93;;;1.40;;
58152;SDS011;43967;51.634;5.566;2023-04-25T14:37:06;4.50;;;1.40;;
58152;SDS011;43967;51.634;5.566;2023-04-25T14:42:28;5.13;;;1.30;;
58152;SDS011;43967;51.634;5.566;2023-04-25T14:47:49;5.72;;;1.60;;
58152;SDS011;43967;51.634;5.566;2023-04-25T14:53:10;4.93;;;1.23;;
58152;SDS011;43967;51.634;5.566;2023-04-25T14:58:32;5.03;;;1.27;;
58152;SDS011;43967;51.634;5.566;2023-04-25T15:03:53;5.15;;;1.38;;
58152;SDS011;43967;51.634;5.566;2023-04-25T15:09:14;6.38;;;1.40;;
58152;SDS011;43967;51.634;5.566;2023-04-25T15:14:36;4.37;;;1.20;;
58152;SDS011;43967;51.634;5.566;2023-04-25T15:19:57;4.50;;;1.15;;
58152;SDS011;43967;51.634;5.566;2023-04-25T15:25:20;4.72;;;1.13;;
58152;SDS011;43967;51.634;5.566;2023-04-25T15:30:43;5.83;;;1.47;;
58152;SDS011;43967;51.634;5.566;2023-04-25T15:36:05;4.70;;;1.17;;
58152;SDS011;43967;51.634;5.566;2023-04-25T15:41:28;6.15;;;1.92;;
58152;SDS011;43967;51.634;5.566;2023-04-25T15:46:49;5.43;;;1.43;;
58152;SDS011;43967;51.634;5.566;2023-04-25T15:52:10;6.37;;;1.53;;
58152;SDS011;43967;51.634;5.566;2023-04-25T15:57:32;6.13;;;1.55;;
58152;SDS011;43967;51.634;5.566;2023-04-25T16:02:56;5.35;;;1.30;;
58152;SDS011;43967;51.634;5.566;2023-04-25T16:08:17;4.37;;;1.23;;
58152;SDS011;43967;51.634;5.566;2023-04-25T16:13:40;6.22;;;1.33;;
58152;SDS011;43967;51.634;5.566;2023-04-25T16:19:01;5.05;;;1.33;;
58152;SDS011;43967;51.634;5.566;2023-04-25T16:24:23;5.77;;;1.30;;
58152;SDS011;43967;51.634;5.566;2023-04-25T16:29:44;6.60;;;1.33;;
58152;SDS011;43967;51.634;5.566;2023-04-25T16:35:06;5.90;;;1.27;;
58152;SDS011;43967;51.634;5.566;2023-04-25T16:40:29;6.43;;;1.50;;
58152;SDS011;43967;51.634;5.566;2023-04-25T16:45:50;6.10;;;1.80;;
58152;SDS011;43967;51.634;5.566;2023-04-25T16:51:13;5.13;;;1.45;;
58152;SDS011;43967;51.634;5.566;2023-04-25T16:56:35;6.03;;;1.60;;
58152;SDS011;43967;51.634;5.566;2023-04-25T17:01:57;5.60;;;1.33;;
58152;SDS011;43967;51.634;5.566;2023-04-25T17:07:19;5.00;;;1.45;;
58152;SDS011;43967;51.634;5.566;2023-04-25T17:12:41;4.78;;;1.25;;
58152;SDS011;43967;51.634;5.566;2023-04-25T17:18:02;5.10;;;1.40;;
58152;SDS011;43967;51.634;5.566;2023-04-25T17:23:23;4.72;;;1.35;;
58152;SDS011;43967;51.634;5.566;2023-04-25T17:28:44;4.07;;;1.20;;
58152;SDS011;43967;51.634;5.566;2023-04-25T17:34:06;5.87;;;1.60;;
58152;SDS011;43967;51.634;5.566;2023-04-25T17:39:27;5.13;;;1.57;;
58152;SDS011;43967;51.634;5.566;2023-04-25T17:44:48;6.13;;;1.55;;
58152;SDS011;43967;51.634;5.566;2023-04-25T17:50:10;5.03;;;1.40;;
58152;SDS011;43967;51.634;5.566;2023-04-25T17:55:31;5.97;;;1.20;;
58152;SDS011;43967;51.634;5.566;2023-04-25T18:00:52;5.00;;;1.20;;
58152;SDS011;43967;51.634;5.566;2023-04-25T18:06:13;5.60;;;1.50;;
58152;SDS011;43967;51.634;5.566;2023-04-25T18:11:35;4.57;;;1.37;;
58152;SDS011;43967;51.634;5.566;2023-04-25T18:16:56;6.10;;;1.65;;
58152;SDS011;43967;51.634;5.566;2023-04-25T18:22:17;6.05;;;1.67;;
58152;SDS011;43967;51.634;5.566;2023-04-25T18:27:39;5.17;;;1.30;;
58152;SDS011;43967;51.634;5.566;2023-04-25T18:33:01;5.83;;;1.43;;
58152;SDS011;43967;51.634;5.566;2023-04-25T18:38:22;5.43;;;1.52;;
58152;SDS011;43967;51.634;5.566;2023-04-25T18:43:43;4.90;;;1.20;;
58152;SDS011;43967;51.634;5.566;2023-04-25T18:49:06;4.60;;;1.10;;
58152;SDS011;43967;51.634;5.566;2023-04-25T18:54:29;6.28;;;1.30;;
58152;SDS011;43967;51.634;5.566;2023-04-25T18:59:50;5.68;;;1.40;;
58152;SDS011;43967;51.634;5.566;2023-04-25T19:05:12;5.07;;;1.53;;
58152;SDS011;43967;51.634;5.566;2023-04-25T19:10:33;4.60;;;1.30;;
58152;SDS011;43967;51.634;5.566;2023-04-25T19:15:55;4.80;;;1.38;;
58152;SDS011;43967;51.634;5.566;2023-04-25T19:21:16;5.43;;;1.83;;
58152;SDS011;43967;51.634;5.566;2023-04-25T19:26:38;5.93;;;1.30;;
58152;SDS011;43967;51.634;5.566;2023-04-25T19:31:59;5.00;;;1.50;;
58152;SDS011;43967;51.634;5.566;2023-04-25T19:37:20;5.05;;;1.52;;
58152;SDS011;43967;51.634;5.566;2023-04-25T19:42:42;5.80;;;1.30;;
58152;SDS011;43967;51.634;5.566;2023-04-25T19:48:04;5.10;;;1.60;;
58152;SDS011;43967;51.634;5.566;2023-04-25T19:53:25;5.43;;;1.40;;
58152;SDS011;43967;51.634;5.566;2023-04-25T19:58:46;5.87;;;1.47;;
58152;SDS011;43967;51.634;5.566;2023-04-25T20:04:08;7.55;;;1.55;;
58152;SDS011;43967;51.634;5.566;2023-04-25T20:09:29;5.05;;;1.60;;
58152;SDS011;43967;51.634;5.566;2023-04-25T20:14:50;6.47;;;1.67;;
58152;SDS011;43967;51.634;5.566;2023-04-25T20:20:11;5.13;;;1.13;;
58152;SDS011;43967;51.634;5.566;2023-04-25T20:25:33;5.97;;;1.50;;
58152;SDS011;43967;51.634;5.566;2023-04-25T20:30:54;5.22;;;1.40;;
58152;SDS011;43967;51.634;5.566;2023-04-25T20:36:17;4.47;;;1.10;;
58152;SDS011;43967;51.634;5.566;2023-04-25T20:41:38;5.95;;;1.40;;
58152;SDS011;43967;51.634;5.566;2023-04-25T20:47:01;5.60;;;1.67;;
58152;SDS011;43967;51.634;5.566;2023-04-25T20:52:22;4.50;;;1.33;;
58152;SDS011;43967;51.634;5.566;2023-04-25T20:57:44;5.75;;;1.60;;
58152;SDS011;43967;51.634;5.566;2023-04-25T21:03:05;5.53;;;1.27;;
58152;SDS011;43967;51.634;5.566;2023-04-25T21:08:26;5.63;;;1.40;;
58152;SDS011;43967;51.634;5.566;2023-04-25T21:13:47;4.63;;;1.40;;
58152;SDS011;43967;51.634;5.566;2023-04-25T21:19:09;6.15;;;1.45;;
58152;SDS011;43967;51.634;5.566;2023-04-25T21:24:30;5.00;;;1.40;;
58152;SDS011;43967;51.634;5.566;2023-04-25T21:29:51;5.13;;;1.57;;
58152;SDS011;43967;51.634;5.566;2023-04-25T21:35:13;5.45;;;1.20;;
58152;SDS011;43967;51.634;5.566;2023-04-25T21:40:36;5.97;;;1.40;;
58152;SDS011;43967;51.634;5.566;2023-04-25T21:45:57;5.33;;;1.77;;
58152;SDS011;43967;51.634;5.566;2023-04-25T21:51:21;5.60;;;1.65;;
58152;SDS011;43967;51.634;5.566;2023-04-25T21:56:44;7.03;;;1.70;;
58152;SDS011;43967;51.634;5.566;2023-04-25T22:02:06;6.63;;;1.73;;
58152;SDS011;43967;51.634;5.566;2023-04-25T22:07:27;5.90;;;1.53;;
58152;SDS011;43967;51.634;5.566;2023-04-25T22:12:49;6.47;;;1.83;;
58152;SDS011;43967;51.634;5.566;2023-04-25T22:18:10;5.75;;;1.80;;
58152;SDS011;43967;51.634;5.566;2023-04-25T22:23:33;5.73;;;1.50;;
58152;SDS011;43967;51.634;5.566;2023-04-25T22:28:54;5.70;;;1.50;;
58152;SDS011;43967;51.634;5.566;2023-04-25T22:34:18;5.40;;;1.30;;
58152;SDS011;43967;51.634;5.566;2023-04-25T22:39:40;6.20;;;1.87;;
58152;SDS011;43967;51.634;5.566;2023-04-25T22:45:01;5.38;;;1.48;;
58152;SDS011;43967;51.634;5.566;2023-04-25T22:50:22;5.80;;;1.75;;
58152;SDS011;43967;51.634;5.566;2023-04-25T22:55:44;5.93;;;1.70;;
58152;SDS011;43967;51.634;5.566;2023-04-25T23:01:05;6.67;;;2.00;;
58152;SDS011;43967;51.634;5.566;2023-04-25T23:12:25;5.13;;;1.50;;
58152;SDS011;43967;51.634;5.566;2023-04-25T23:17:46;5.93;;;1.80;;
58152;SDS011;43967;51.634;5.566;2023-04-25T23:23:07;6.68;;;1.77;;
58152;SDS011;43967;51.634;5.566;2023-04-25T23:28:29;6.97;;;1.90;;
58152;SDS011;43967;51.634;5.566;2023-04-25T23:33:50;5.20;;;1.60;;
58152;SDS011;43967;51.634;5.566;2023-04-25T23:39:11;6.20;;;2.00;;
58152;SDS011;43967;51.634;5.566;2023-04-25T23:44:32;6.63;;;2.33;;
58152;SDS011;43967;51.634;5.566;2023-04-25T23:49:56;7.33;;;1.90;;
58152;SDS011;43967;51.634;5.566;2023-04-25T23:55:18;5.83;;;1.70;;
